Time;durP1;ratioP1;P1;durP2;ratioP2;P2;SDS_P1;SDS_P2;PMS_P1;PMS_P2;Temp;Humidity;BMP_temperature;BMP_pressure;BME280_temperature;BME280_humidity;BME280_pressure;Samples;Min_cycle;Max_cycle;Signal;HPM_P1;HPM_P2
2022/06/09 00:00:06;;;;;;;16.52;3.67;;;;;;;17.17;66.49;100169.78;5037937;28;20071;-95
2022/06/09 00:02:35;;;;;;;26.60;4.65;;;;;;;16.92;67.63;100180.13;5036187;28;20025;-95
2022/06/09 00:05:01;;;;;;;26.80;5.03;;;;;;;16.85;67.76;100184.41;5052421;28;20032;-96
2022/06/09 00:07:27;;;;;;;27.50;4.38;;;;;;;16.96;67.85;100176.22;5033600;28;20028;-94
2022/06/09 00:10:05;;;;;;;34.10;4.22;;;;;;;16.99;67.46;100183.03;5015980;28;20025;-94
2022/06/09 00:12:31;;;;;;;34.05;5.78;;;;;;;17.09;66.91;100177.66;5031203;28;20092;-91
2022/06/09 00:14:57;;;;;;;24.05;4.88;;;;;;;17.06;67.61;100184.09;5016133;28;20026;-94
2022/06/09 00:17:24;;;;;;;34.17;5.25;;;;;;;17.05;67.47;100193.88;5017546;28;20080;-95
2022/06/09 00:19:49;;;;;;;25.45;4.32;;;;;;;17.22;67.60;100186.91;5015440;28;20071;-95
2022/06/09 00:22:15;;;;;;;34.28;5.28;;;;;;;17.33;67.40;100187.66;5015056;28;20021;-95
2022/06/09 00:24:40;;;;;;;34.00;4.35;;;;;;;17.40;67.10;100175.44;5015088;28;20203;-95
2022/06/09 00:27:06;;;;;;;29.67;4.63;;;;;;;17.56;66.61;100183.50;5030041;28;20041;-94
2022/06/09 00:29:31;;;;;;;24.15;4.63;;;;;;;17.87;65.31;100182.25;5034385;28;20021;-95
2022/06/09 00:31:56;;;;;;;23.33;4.65;;;;;;;17.68;65.80;100176.13;5033887;28;20053;-96
2022/06/09 00:34:22;;;;;;;35.33;4.65;;;;;;;17.56;66.33;100180.03;5033909;28;20394;-96
2022/06/09 00:36:47;;;;;;;26.58;4.28;;;;;;;17.44;66.30;100196.19;5033055;28;20475;-96
2022/06/09 00:39:13;;;;;;;38.53;6.68;;;;;;;17.37;66.66;100186.34;5033842;28;20495;-96
2022/06/09 00:41:41;;;;;;;36.90;5.32;;;;;;;17.20;67.43;100188.88;5037063;28;20480;-96
2022/06/09 00:44:20;;;;;;;26.50;3.60;;;;;;;17.28;67.20;100200.53;5034026;28;20396;-95
2022/06/09 00:46:52;;;;;;;34.20;5.78;;;;;;;17.38;67.14;100193.34;5033849;28;20029;-96
2022/06/09 00:49:27;;;;;;;38.00;5.78;;;;;;;17.48;66.41;100194.06;5034427;28;20048;-95
2022/06/09 00:52:00;;;;;;;28.15;5.60;;;;;;;17.24;67.58;100198.19;5033322;28;20026;-95
2022/06/09 00:54:33;;;;;;;25.80;3.80;;;;;;;17.12;67.97;100194.13;5033307;28;20022;-95
2022/06/09 00:57:07;;;;;;;32.60;4.07;;;;;;;17.31;67.38;100193.09;5034533;28;20021;-96
2022/06/09 00:59:35;;;;;;;19.33;3.00;;;;;;;17.61;66.51;100204.28;5035131;28;20543;-96
2022/06/09 01:02:04;;;;;;;21.02;4.20;;;;;;;17.69;65.97;100200.84;5035477;28;20075;-96
2022/06/09 01:04:32;;;;;;;28.52;4.30;;;;;;;17.43;66.96;100185.72;5034178;28;20555;-94
2022/06/09 01:07:02;;;;;;;29.42;4.70;;;;;;;17.64;66.51;100201.31;5036513;28;20028;-96
2022/06/09 01:09:30;;;;;;;38.75;5.40;;;;;;;17.65;66.40;100189.69;5052324;28;20041;-95
2022/06/09 01:11:56;;;;;;;23.60;5.45;;;;;;;17.70;66.49;100202.53;5036897;28;20030;-95
2022/06/09 01:14:32;;;;;;;31.95;5.55;;;;;;;17.74;65.93;100195.91;5033314;28;20022;-94
2022/06/09 01:17:12;;;;;;;26.55;5.63;;;;;;;17.73;66.12;100203.06;5035350;28;20033;-94
2022/06/09 01:20:08;;;;;;;19.20;3.45;;;;;;;17.84;65.74;100197.50;5033345;28;20420;-94
2022/06/09 01:22:46;;;;;;;29.35;5.13;;;;;;;17.80;65.89;100200.59;5057740;28;20041;-96
2022/06/09 01:25:53;;;;;;;36.67;5.53;;;;;;;17.62;66.30;100200.66;5047059;28;20037;-95
2022/06/09 01:28:31;;;;;;;30.50;4.40;;;;;;;17.70;66.25;100206.00;5033417;28;20038;-95
2022/06/09 01:31:11;;;;;;;26.10;3.90;;;;;;;17.65;66.11;100200.31;5047804;28;20026;-95
2022/06/09 01:33:39;;;;;;;34.90;5.25;;;;;;;17.60;66.64;100207.94;5047250;28;20025;-96
2022/06/09 01:36:12;;;;;;;23.63;4.00;;;;;;;17.65;65.79;100210.94;5068493;28;20040;-96
2022/06/09 01:38:48;;;;;;;30.15;5.70;;;;;;;17.36;66.93;100201.44;5074041;28;20013;-93
2022/06/09 01:41:17;;;;;;;28.05;5.07;;;;;;;17.43;66.51;100201.66;5074126;28;20017;-94
2022/06/09 01:43:46;;;;;;;32.92;4.88;;;;;;;17.34;66.75;100198.13;5057165;28;20093;-95
2022/06/09 01:46:35;;;;;;;18.33;3.63;;;;;;;17.36;66.77;100195.31;5073743;28;20045;-94
2022/06/09 01:49:07;;;;;;;20.00;4.13;;;;;;;17.17;66.98;100196.31;5057260;28;20077;-95
2022/06/09 01:51:35;;;;;;;26.20;4.72;;;;;;;17.25;66.54;100199.03;5073281;28;20036;-95
2022/06/09 01:54:25;;;;;;;31.05;4.78;;;;;;;17.10;67.09;100206.69;5057307;28;20009;-95
2022/06/09 01:56:59;;;;;;;28.30;5.18;;;;;;;16.98;68.08;100203.44;5073596;28;20104;-96
2022/06/09 02:04:50;;;;;;;26.00;4.63;;;;;;;16.90;67.59;100191.91;5076136;28;20041;-96
2022/06/09 02:07:18;;;;;;;26.60;3.88;;;;;;;16.85;68.59;100206.44;5076749;28;20032;-94
2022/06/09 02:09:44;;;;;;;32.40;5.10;;;;;;;16.75;68.34;100215.41;5080150;28;20017;-95
2022/06/09 02:12:14;;;;;;;25.52;4.22;;;;;;;16.66;68.65;100210.00;5075604;28;20016;-95
2022/06/09 02:14:44;;;;;;;40.10;5.50;;;;;;;16.03;71.96;100218.69;5059159;28;20024;-94
2022/06/09 02:17:10;;;;;;;36.70;6.25;;;;;;;16.25;71.30;100229.88;5057068;28;20033;-94
2022/06/09 02:19:38;;;;;;;28.63;6.32;;;;;;;16.64;69.20;100217.28;5041366;28;20399;-96
2022/06/09 02:22:06;;;;;;;35.83;5.22;;;;;;;16.53;69.82;100222.78;5040073;28;20025;-96
2022/06/09 02:24:32;;;;;;;32.75;6.00;;;;;;;16.57;69.19;100224.16;5039880;28;20124;-96
2022/06/09 02:26:58;;;;;;;25.38;4.72;;;;;;;16.57;69.54;100231.28;5039409;28;20112;-96
2022/06/09 02:29:24;;;;;;;36.78;4.95;;;;;;;16.21;71.20;100224.03;5038966;28;20053;-94
2022/06/09 02:31:49;;;;;;;25.85;4.13;;;;;;;16.50;70.50;100227.53;5038595;28;20464;-92
2022/06/09 02:34:15;;;;;;;28.08;5.15;;;;;;;16.53;69.38;100222.78;5037331;28;20499;-95
2022/06/09 02:36:40;;;;;;;40.17;5.80;;;;;;;16.55;69.50;100236.72;5040814;28;20029;-94
2022/06/09 02:39:06;;;;;;;29.80;4.82;;;;;;;16.44;70.38;100234.25;5038802;28;20080;-95
2022/06/09 02:41:32;;;;;;;33.22;5.53;;;;;;;16.56;69.50;100250.81;5041052;28;20021;-95
2022/06/09 02:43:59;;;;;;;31.67;4.53;;;;;;;16.54;69.46;100247.47;5040489;28;20499;-95
2022/06/09 02:46:24;;;;;;;24.20;5.03;;;;;;;16.44;68.97;100244.84;5038300;28;20072;-96
2022/06/09 02:48:50;;;;;;;34.85;5.70;;;;;;;16.51;69.86;100251.25;5040192;28;20025;-96
2022/06/09 02:51:25;;;;;;;31.23;4.80;;;;;;;16.56;69.64;100256.94;5038765;28;20464;-95
2022/06/09 02:53:52;;;;;;;29.48;5.60;;;;;;;16.53;69.86;100257.25;5036701;28;20068;-94
2022/06/09 02:56:18;;;;;;;28.35;5.53;;;;;;;16.49;69.91;100253.22;5038316;28;20029;-96
2022/06/09 02:58:43;;;;;;;33.58;6.20;;;;;;;16.28;71.00;100247.31;5038957;28;20029;-95
2022/06/09 03:01:09;;;;;;;32.55;5.15;;;;;;;16.49;70.02;100247.91;5040011;28;20112;-95
2022/06/09 03:03:34;;;;;;;21.95;4.22;;;;;;;16.46;69.19;100245.56;5038858;28;20025;-96
2022/06/09 03:05:59;;;;;;;31.23;4.38;;;;;;;16.41;69.87;100253.09;5040103;28;20026;-96
2022/06/09 03:08:26;;;;;;;18.40;3.65;;;;;;;16.33;69.83;100245.03;5040054;28;20026;-96
2022/06/09 03:10:52;;;;;;;28.77;4.65;;;;;;;16.32;70.53;100252.16;5036957;28;20033;-94
2022/06/09 03:13:17;;;;;;;32.65;6.18;;;;;;;16.31;70.59;100252.28;5035880;28;20017;-95
2022/06/09 03:15:43;;;;;;;27.63;4.45;;;;;;;16.33;70.30;100267.09;5039980;28;20044;-96
2022/06/09 03:18:09;;;;;;;30.20;4.50;;;;;;;16.40;70.31;100256.75;5037309;28;20387;-96
2022/06/09 03:20:34;;;;;;;39.83;5.65;;;;;;;16.41;69.97;100256.59;5034837;28;20021;-96
2022/06/09 03:23:00;;;;;;;25.70;4.78;;;;;;;16.44;69.89;100260.75;5036801;28;20029;-96
2022/06/09 03:25:25;;;;;;;31.42;4.40;;;;;;;16.09;71.47;100259.59;5036508;28;20032;-96
2022/06/09 03:27:51;;;;;;;16.95;4.15;;;;;;;15.84;72.47;100256.63;5036503;28;20029;-95
2022/06/09 03:30:17;;;;;;;16.02;3.65;;;;;;;15.93;72.83;100260.22;5038906;28;20026;-95
2022/06/09 03:32:42;;;;;;;32.30;5.25;;;;;;;15.89;73.00;100255.34;5039268;28;20109;-96
2022/06/09 03:35:09;;;;;;;25.90;4.22;;;;;;;15.72;74.11;100256.88;5038199;28;20049;-95
2022/06/09 03:37:35;;;;;;;28.77;4.57;;;;;;;15.79;72.94;100258.84;5039036;28;20017;-95
2022/06/09 03:40:01;;;;;;;24.67;4.20;;;;;;;16.02;71.98;100251.41;5038400;28;20028;-96
2022/06/09 03:42:26;;;;;;;23.92;4.53;;;;;;;16.37;70.77;100257.88;5036746;28;20025;-96
2022/06/09 03:44:52;;;;;;;47.90;6.28;;;;;;;16.30;71.21;100255.94;5038678;28;20545;-96
2022/06/09 03:47:17;;;;;;;41.25;8.07;;;;;;;16.33;71.00;100260.94;5037908;28;20037;-95
2022/06/09 03:49:42;;;;;;;23.70;4.10;;;;;;;15.97;72.68;100272.19;5036704;28;20089;-96
2022/06/09 03:52:08;;;;;;;20.40;4.13;;;;;;;15.79;73.03;100263.31;5038639;28;20022;-96
2022/06/09 03:54:33;;;;;;;33.88;6.78;;;;;;;15.62;74.68;100273.59;5038331;28;20103;-96
2022/06/09 03:56:58;;;;;;;34.55;4.75;;;;;;;16.17;72.39;100262.41;5038501;28;20025;-96
2022/06/09 03:59:24;;;;;;;25.63;4.65;;;;;;;15.92;73.05;100281.56;5037220;28;20025;-95
2022/06/09 04:01:49;;;;;;;29.33;5.15;;;;;;;15.88;73.45;100283.66;5036327;28;20037;-95
2022/06/09 04:04:15;;;;;;;33.83;5.55;;;;;;;15.70;74.09;100280.00;5036253;28;20044;-94
2022/06/09 04:06:41;;;;;;;38.35;5.63;;;;;;;15.72;73.65;100288.63;5036624;28;20025;-94
2022/06/09 04:09:07;;;;;;;32.47;5.53;;;;;;;15.64;74.00;100286.72;5037849;28;20022;-94
2022/06/09 04:11:32;;;;;;;26.98;5.30;;;;;;;16.14;72.28;100288.34;5035456;28;20017;-95
2022/06/09 04:13:58;;;;;;;27.48;5.03;;;;;;;16.35;71.05;100288.13;5036839;28;20053;-95
2022/06/09 04:16:30;;;;;;;33.15;5.75;;;;;;;16.24;71.39;100279.38;5037499;28;20026;-95
2022/06/09 04:18:59;;;;;;;23.60;4.50;;;;;;;16.37;70.53;100280.84;5035290;28;20079;-96
2022/06/09 04:21:25;;;;;;;27.45;5.25;;;;;;;16.40;70.33;100280.59;5036158;28;20029;-96
2022/06/09 04:23:50;;;;;;;21.20;4.07;;;;;;;16.41;70.28;100300.78;5034493;28;20471;-96
2022/06/09 04:26:18;;;;;;;24.13;4.50;;;;;;;16.46;70.27;100295.91;5035866;28;20034;-96
2022/06/09 04:28:45;;;;;;;35.47;6.32;;;;;;;16.61;70.17;100297.09;5034930;28;20484;-95
2022/06/09 04:31:11;;;;;;;18.48;4.43;;;;;;;16.75;70.25;100297.59;5037948;28;20049;-96
2022/06/09 04:33:37;;;;;;;27.67;5.85;;;;;;;16.89;69.84;100298.97;5034776;28;20021;-96
2022/06/09 04:36:04;;;;;;;26.88;5.63;;;;;;;16.96;69.53;100310.63;5038321;28;20108;-96
2022/06/09 04:38:29;;;;;;;30.38;4.93;;;;;;;16.96;69.90;100315.94;5036044;28;20036;-95
2022/06/09 04:40:55;;;;;;;33.47;5.60;;;;;;;17.18;69.02;100314.69;5036543;28;20026;-95
2022/06/09 04:43:20;;;;;;;28.83;4.97;;;;;;;17.23;69.10;100315.09;5035936;28;20479;-96
2022/06/09 04:45:46;;;;;;;23.33;4.07;;;;;;;17.33;68.53;100331.78;5035035;28;20036;-96
2022/06/09 04:48:12;;;;;;;20.13;4.90;;;;;;;17.44;68.80;100333.41;5036530;28;20022;-95
2022/06/09 04:50:39;;;;;;;19.63;4.40;;;;;;;17.48;68.08;100341.91;5035821;28;20089;-96
2022/06/09 04:53:05;;;;;;;21.85;4.38;;;;;;;17.59;68.46;100349.63;5036852;28;20116;-95
2022/06/09 04:55:31;;;;;;;38.65;6.95;;;;;;;17.67;67.66;100346.22;5034957;28;20495;-96
2022/06/09 04:57:56;;;;;;;26.13;5.38;;;;;;;17.75;67.40;100344.47;5036939;28;20029;-96
2022/06/09 05:00:22;;;;;;;24.50;4.03;;;;;;;17.82;67.50;100357.97;5034814;28;20041;-96
2022/06/09 05:02:47;;;;;;;26.13;5.13;;;;;;;17.76;67.57;100354.09;5036248;28;20057;-94
2022/06/09 05:05:19;;;;;;;28.15;5.05;;;;;;;17.51;67.98;100368.13;5035644;28;20059;-95
2022/06/09 05:07:44;;;;;;;29.50;4.72;;;;;;;17.55;67.24;100370.31;5036283;28;20041;-96
2022/06/09 05:10:10;;;;;;;38.63;5.32;;;;;;;17.92;67.13;100376.53;5036091;28;20034;-96
2022/06/09 05:12:35;;;;;;;28.75;5.82;;;;;;;18.07;66.77;100377.66;5034478;28;20021;-95
2022/06/09 05:15:01;;;;;;;28.65;4.10;;;;;;;18.04;66.44;100386.75;5036479;28;20033;-96
2022/06/09 05:17:26;;;;;;;38.38;7.70;;;;;;;18.14;66.10;100393.81;5034412;28;20018;-95
2022/06/09 05:19:52;;;;;;;29.83;5.07;;;;;;;18.32;65.37;100396.44;5036849;28;20033;-96
2022/06/09 05:22:17;;;;;;;26.35;4.20;;;;;;;18.39;65.83;100384.19;5034837;28;20041;-96
2022/06/09 05:24:43;;;;;;;30.08;5.22;;;;;;;18.56;65.31;100396.63;5035999;28;20026;-95
2022/06/09 05:27:11;;;;;;;23.13;4.72;;;;;;;19.11;64.34;100391.94;5034377;28;20037;-95
2022/06/09 05:29:36;;;;;;;22.45;3.58;;;;;;;19.11;64.13;100399.91;5034853;28;20021;-96
2022/06/09 05:32:03;;;;;;;17.35;3.88;;;;;;;19.03;63.73;100390.88;5035671;28;20018;-95
2022/06/09 05:34:30;;;;;;;26.15;4.60;;;;;;;19.08;64.35;100395.75;5034548;28;20384;-95
2022/06/09 05:36:55;;;;;;;22.63;3.63;;;;;;;19.32;63.42;100402.16;5036243;28;20025;-95
2022/06/09 05:44:51;;;;;;;20.73;3.88;;;;;;;20.08;61.38;100406.47;5033465;28;20099;-94
2022/06/09 05:47:20;;;;;;;29.02;5.40;;;;;;;20.26;60.38;100408.16;5029617;28;20124;-94
2022/06/09 05:49:50;;;;;;;19.35;4.05;;;;;;;20.53;60.06;100401.63;5034107;28;20056;-96
2022/06/09 05:52:18;;;;;;;31.58;5.47;;;;;;;20.31;59.79;100413.81;5039064;28;20044;-95
2022/06/09 05:54:44;;;;;;;21.95;3.58;;;;;;;20.31;59.71;100416.50;5034014;28;20112;-96
2022/06/09 05:57:09;;;;;;;23.35;3.83;;;;;;;20.40;59.68;100418.16;5025379;28;20105;-95
2022/06/09 05:59:36;;;;;;;23.50;3.63;;;;;;;20.46;60.21;100414.81;5032088;28;20069;-96
2022/06/09 06:02:02;;;;;;;23.52;4.60;;;;;;;20.07;60.58;100402.16;5020568;28;20124;-96
2022/06/09 06:04:27;;;;;;;28.30;4.55;;;;;;;20.12;60.20;100413.19;5026954;28;20026;-96
2022/06/09 06:09:27;;;;;;;21.52;4.50;;;;;;;19.66;60.69;100420.72;5042507;28;20053;-94
2022/06/09 06:12:03;;;;;;;26.45;3.92;;;;;;;19.39;61.01;100419.16;5155472;22;20032;-96
2022/06/09 06:14:30;;;;;;;19.73;4.32;;;;;;;19.40;61.49;100419.00;5081744;28;20033;-96
2022/06/09 06:16:59;;;;;;;21.58;2.83;;;;;;;19.18;61.96;100411.59;5078173;28;20064;-96
2022/06/09 06:22:09;;;;;;;20.90;3.88;;;;;;;19.40;61.00;100421.66;5100494;22;20060;-96
2022/06/09 06:24:35;;;;;;;22.60;2.85;;;;;;;19.19;60.75;100418.56;5083234;28;20093;-94
2022/06/09 06:27:00;;;;;;;19.85;3.13;;;;;;;19.17;60.96;100420.56;5069929;28;20498;-94
2022/06/09 06:29:31;;;;;;;18.23;2.95;;;;;;;19.10;60.97;100425.69;5072675;28;20067;-96
2022/06/09 06:31:57;;;;;;;18.38;2.80;;;;;;;19.11;60.51;100410.56;5334804;22;20036;-96
2022/06/09 06:44:49;;;;;;;21.48;3.20;;;;;;;19.25;61.89;100441.88;5044082;28;20057;-93
2022/06/09 06:47:14;;;;;;;19.73;3.53;;;;;;;19.19;61.60;100455.84;5030089;28;20095;-93
2022/06/09 06:49:39;;;;;;;18.02;2.72;;;;;;;19.30;61.21;100455.56;5043754;28;20051;-96
2022/06/09 06:52:05;;;;;;;15.65;3.17;;;;;;;19.21;61.48;100465.34;5041025;28;20022;-96
2022/06/09 06:54:30;;;;;;;10.52;2.08;;;;;;;19.50;61.18;100469.44;5065685;22;20048;-95
2022/06/09 06:56:56;;;;;;;22.33;3.30;;;;;;;19.73;60.38;100475.06;5042602;28;20053;-96
2022/06/09 06:59:24;;;;;;;19.08;2.85;;;;;;;20.04;58.91;100476.28;5051263;28;20025;-95
2022/06/09 07:01:49;;;;;;;18.08;3.13;;;;;;;21.06;57.38;100466.91;5055206;28;20029;-96
2022/06/09 07:04:15;;;;;;;15.73;3.72;;;;;;;25.22;47.82;100449.28;5056317;28;20533;-96
2022/06/09 07:06:41;;;;;;;13.85;2.10;;;;;;;29.55;38.47;100431.38;5043316;28;20036;-96
2022/06/09 07:09:07;;;;;;;13.55;2.67;;;;;;;28.83;37.72;100439.28;5040449;28;20472;-96
2022/06/09 07:11:32;;;;;;;9.93;1.90;;;;;;;29.51;37.36;100457.25;5041544;28;20026;-95
2022/06/09 07:13:58;;;;;;;15.40;3.00;;;;;;;28.66;38.81;100460.66;5038628;28;20025;-96
2022/06/09 07:16:23;;;;;;;13.20;2.47;;;;;;;27.02;41.22;100476.47;5039228;28;20025;-96
2022/06/09 07:18:48;;;;;;;8.90;1.83;;;;;;;25.20;44.98;100470.94;5058368;28;20025;-96
2022/06/09 07:21:15;;;;;;;18.85;3.22;;;;;;;24.64;45.62;100473.66;5059633;28;20025;-94
2022/06/09 07:23:41;;;;;;;11.25;2.10;;;;;;;24.36;47.05;100474.44;5043499;28;20021;-96
2022/06/09 07:26:06;;;;;;;19.80;3.22;;;;;;;22.94;49.21;100470.22;5044167;28;20060;-96
2022/06/09 07:28:33;;;;;;;13.32;2.20;;;;;;;22.82;50.17;100482.41;5053471;28;20013;-96
2022/06/09 07:31:00;;;;;;;15.57;3.40;;;;;;;22.23;50.90;100490.25;5039685;28;20025;-96
2022/06/09 07:33:28;;;;;;;19.23;2.92;;;;;;;21.75;53.38;100483.19;5039810;28;20022;-95
2022/06/09 07:35:56;;;;;;;20.83;2.63;;;;;;;22.86;51.36;100478.34;5040117;28;20027;-95
2022/06/09 07:38:24;;;;;;;15.30;2.75;;;;;;;23.20;50.01;100474.34;5036585;28;20114;-94
2022/06/09 07:40:50;;;;;;;19.27;3.10;;;;;;;23.32;49.22;100482.72;5040203;28;20020;-96
2022/06/09 07:43:15;;;;;;;12.38;2.30;;;;;;;23.05;48.96;100485.06;5036161;28;20065;-95
2022/06/09 07:45:41;;;;;;;12.40;2.75;;;;;;;21.72;51.85;100490.72;5038983;28;20029;-96
2022/06/09 07:48:07;;;;;;;14.13;2.22;;;;;;;21.61;51.98;100497.31;5036647;28;20037;-96
2022/06/09 07:50:34;;;;;;;16.08;2.38;;;;;;;21.48;53.04;100491.69;5038030;28;20037;-95
2022/06/09 07:53:00;;;;;;;12.88;3.15;;;;;;;21.15;53.56;100494.44;5037272;28;20018;-96
2022/06/09 07:55:26;;;;;;;11.18;2.58;;;;;;;20.62;54.44;100504.69;5036392;28;20028;-96
2022/06/09 07:57:53;;;;;;;20.17;3.50;;;;;;;20.42;56.01;100512.16;5037927;28;20104;-95
2022/06/09 08:00:20;;;;;;;14.57;2.65;;;;;;;20.98;55.33;100502.47;5037175;28;20117;-96
2022/06/09 08:02:46;;;;;;;16.23;2.30;;;;;;;20.76;56.54;100500.50;5042489;28;20025;-95
2022/06/09 08:05:14;;;;;;;11.30;2.25;;;;;;;21.12;56.20;100497.44;5036532;28;20024;-95
2022/06/09 08:07:40;;;;;;;18.20;2.75;;;;;;;21.12;56.53;100510.78;5034586;28;20079;-94
2022/06/09 08:10:08;;;;;;;15.63;2.78;;;;;;;20.91;57.08;100527.34;5035942;28;20025;-96
2022/06/09 08:12:34;;;;;;;22.25;3.30;;;;;;;20.84;58.76;100527.19;5036104;28;20032;-96
2022/06/09 08:15:00;;;;;;;12.45;2.25;;;;;;;21.30;56.03;100534.59;5037295;28;20124;-96
2022/06/09 08:17:26;;;;;;;24.85;3.55;;;;;;;21.15;56.22;100543.34;5035388;28;20380;-96
2022/06/09 08:19:51;;;;;;;17.55;2.97;;;;;;;20.58;57.55;100530.84;5034402;28;20074;-96
2022/06/09 08:22:17;;;;;;;13.73;2.65;;;;;;;20.37;58.49;100527.81;5034721;28;20432;-96
2022/06/09 08:24:43;;;;;;;13.70;2.58;;;;;;;21.02;57.05;100528.84;5034744;28;20128;-96
2022/06/09 08:27:08;;;;;;;12.50;2.53;;;;;;;21.45;55.71;100532.94;5034676;28;20060;-96
2022/06/09 08:29:34;;;;;;;13.90;2.88;;;;;;;20.58;57.02;100541.50;5034459;28;20022;-96
2022/06/09 08:32:00;;;;;;;16.15;2.70;;;;;;;21.08;56.35;100538.84;5034466;28;20083;-96
2022/06/09 08:34:25;;;;;;;15.07;2.88;;;;;;;21.63;55.10;100540.72;5035011;28;20033;-96
2022/06/09 08:36:51;;;;;;;17.83;4.25;;;;;;;21.71;54.50;100547.88;5032264;28;20112;-96
2022/06/09 08:39:17;;;;;;;20.65;4.70;;;;;;;21.51;55.36;100544.78;5028546;28;20176;-96
2022/06/09 08:42:02;;;;;;;24.33;5.07;;;;;;;21.51;55.26;100536.75;5035823;28;20029;-96
2022/06/09 08:44:36;;;;;;;15.73;4.82;;;;;;;21.33;55.52;100544.97;5035801;28;20496;-94
2022/06/09 08:47:19;;;;;;;15.73;5.40;;;;;;;21.54;54.53;100549.75;5033681;28;20089;-94
2022/06/09 08:49:54;;;;;;;13.55;3.28;;;;;;;21.13;55.81;100541.81;5034272;28;20075;-95
2022/06/09 08:52:41;;;;;;;11.00;2.80;;;;;;;21.50;54.66;100543.91;5035076;28;20030;-95
2022/06/09 08:55:35;;;;;;;10.43;2.40;;;;;;;21.51;53.80;100544.78;5035566;28;20029;-96
2022/06/09 08:58:22;;;;;;;14.55;4.75;;;;;;;21.72;53.84;100547.69;5035719;28;20045;-96
2022/06/09 09:00:57;;;;;;;12.93;3.90;;;;;;;21.44;54.37;100549.94;5035987;28;20021;-96
2022/06/09 09:03:36;;;;;;;16.52;3.20;;;;;;;21.50;53.99;100549.25;5035272;28;20258;-96
2022/06/09 09:06:20;;;;;;;13.98;3.97;;;;;;;21.77;54.38;100549.84;5033409;28;20026;-95
2022/06/09 09:08:45;;;;;;;17.92;3.53;;;;;;;21.82;52.71;100546.63;5033598;28;20037;-95
2022/06/09 09:11:22;;;;;;;14.57;3.13;;;;;;;22.43;51.47;100544.97;5021127;28;20026;-96
2022/06/09 09:13:59;;;;;;;10.73;2.70;;;;;;;22.60;51.82;100555.56;5016185;28;20038;-96
2022/06/09 09:16:46;;;;;;;12.80;2.78;;;;;;;22.09;51.64;100548.00;5016147;28;20121;-96
2022/06/09 09:19:33;;;;;;;12.75;2.90;;;;;;;22.43;51.87;100549.47;5016329;28;20029;-95
2022/06/09 09:22:04;;;;;;;14.65;3.05;;;;;;;21.88;51.39;100551.28;5030899;28;20038;-93
2022/06/09 09:24:52;;;;;;;18.80;2.63;;;;;;;22.29;50.93;100551.91;5032329;28;20040;-92
2022/06/09 09:27:55;;;;;;;10.15;2.10;;;;;;;22.40;50.60;100555.22;5030801;28;20037;-93
2022/06/09 09:30:30;;;;;;;11.13;2.67;;;;;;;23.43;48.67;100562.66;5032445;28;20045;-92
2022/06/09 09:32:56;;;;;;;17.77;2.97;;;;;;;24.61;46.04;100546.53;5032308;28;20040;-93
2022/06/09 09:35:24;;;;;;;11.30;2.17;;;;;;;27.23;41.62;100542.75;5032631;28;20025;-93
2022/06/09 09:37:55;;;;;;;14.68;2.40;;;;;;;27.82;40.13;100532.81;5032410;28;20083;-94
2022/06/09 09:40:24;;;;;;;7.60;1.57;;;;;;;28.19;39.52;100536.59;5032861;28;20411;-94
2022/06/09 09:42:54;;;;;;;7.38;2.00;;;;;;;28.44;38.92;100538.53;5032179;28;20020;-94
2022/06/09 09:45:29;;;;;;;10.93;2.25;;;;;;;28.56;38.52;100533.28;5032847;28;20050;-94
2022/06/09 09:47:59;;;;;;;10.50;2.40;;;;;;;29.27;37.81;100532.81;5030550;28;20171;-93
2022/06/09 09:50:38;;;;;;;11.10;2.95;;;;;;;28.35;38.30;100529.84;5032371;28;20021;-93
2022/06/09 09:53:19;;;;;;;11.02;2.30;;;;;;;28.60;39.01;100521.78;5030595;28;20116;-92
2022/06/09 09:56:17;;;;;;;9.40;2.00;;;;;;;29.13;37.30;100514.25;5031966;28;20422;-92
2022/06/09 09:58:54;;;;;;;12.60;3.65;;;;;;;27.21;40.36;100521.41;5013950;28;20033;-92
2022/06/09 10:01:19;;;;;;;12.45;2.15;;;;;;;26.84;40.59;100537.22;5032176;28;20137;-93
2022/06/09 10:09:54;;;;;;;13.35;3.13;;;;;;;25.69;43.52;100539.00;5030511;28;20511;-93
2022/06/09 10:12:22;;;;;;;11.88;2.70;;;;;;;25.67;43.87;100527.59;5031541;28;20167;-92
2022/06/09 10:15:01;;;;;;;10.88;2.25;;;;;;;25.50;43.57;100527.97;5031808;28;20036;-92
2022/06/09 10:17:36;;;;;;;12.95;1.88;;;;;;;25.64;43.03;100528.03;5031617;28;20036;-93
2022/06/09 10:20:13;;;;;;;10.65;2.20;;;;;;;25.17;43.91;100533.09;5031280;28;20025;-93
2022/06/09 10:22:40;;;;;;;10.73;2.35;;;;;;;25.05;43.35;100529.31;5031611;28;20025;-94
2022/06/09 10:25:25;;;;;;;10.35;2.22;;;;;;;24.87;44.13;100530.63;5029705;28;20449;-93
2022/06/09 10:27:58;;;;;;;9.63;1.90;;;;;;;25.09;44.10;100535.97;5032176;28;20036;-93
2022/06/09 10:30:38;;;;;;;9.52;2.03;;;;;;;25.59;42.13;100525.09;5034403;28;20129;-92
2022/06/09 10:33:32;;;;;;;10.43;2.13;;;;;;;25.01;43.27;100538.78;5035508;28;20491;-93
2022/06/09 10:36:32;;;;;;;11.68;2.28;;;;;;;24.73;43.83;100547.66;5033594;28;20056;-93
2022/06/09 10:39:16;;;;;;;10.45;2.10;;;;;;;24.13;45.18;100547.03;5031067;28;20068;-93
2022/06/09 10:41:49;;;;;;;10.90;1.88;;;;;;;23.83;46.10;100547.13;5050634;28;20440;-92
2022/06/09 10:44:26;;;;;;;9.88;2.40;;;;;;;23.97;45.53;100547.28;5036025;28;20033;-94
2022/06/09 10:57:00;;;;;;;10.48;2.13;;;;;;;24.58;43.43;100533.50;4980600;28;20579;-93
2022/06/09 10:59:48;;;;;;;11.27;3.35;;;;;;;24.23;42.75;100536.00;5015470;28;20099;-91
2022/06/09 11:02:18;;;;;;;10.95;2.25;;;;;;;23.92;43.94;100546.00;5030995;28;20061;-90
2022/06/09 11:04:46;;;;;;;6.53;1.85;;;;;;;24.35;43.36;100540.69;5034781;28;20033;-87
2022/06/09 11:07:11;;;;;;;12.40;4.00;;;;;;;24.32;44.06;100545.59;5032949;28;20411;-90
2022/06/09 11:09:43;;;;;;;7.47;1.95;;;;;;;24.14;42.88;100548.72;5032779;28;20033;-89
2022/06/09 11:12:27;;;;;;;7.82;1.73;;;;;;;23.70;43.75;100550.44;5036120;28;20117;-90
2022/06/09 11:15:15;;;;;;;9.43;1.50;;;;;;;24.17;43.51;100553.72;5038359;28;20540;-89
2022/06/09 11:18:09;;;;;;;8.90;1.98;;;;;;;24.24;43.75;100564.50;5034205;28;20545;-89
2022/06/09 11:20:58;;;;;;;7.40;1.60;;;;;;;24.46;42.87;100557.31;5036812;28;20083;-90
2022/06/09 11:23:26;;;;;;;6.30;1.80;;;;;;;23.90;42.60;100564.13;5041706;28;20029;-90
2022/06/09 11:26:09;;;;;;;8.10;2.13;;;;;;;23.89;43.20;100567.00;5043296;28;20033;-90
2022/06/09 11:29:04;;;;;;;8.13;1.95;;;;;;;24.11;42.89;100559.81;5046691;28;20026;-89
2022/06/09 11:31:41;;;;;;;7.38;1.85;;;;;;;24.63;42.80;100556.06;5044997;28;20093;-90
2022/06/09 11:34:32;;;;;;;8.60;1.88;;;;;;;24.19;43.17;100565.09;5033161;28;20030;-90
2022/06/09 11:37:27;;;;;;;7.28;1.70;;;;;;;24.42;42.80;100559.53;5023911;28;20045;-91
2022/06/09 11:40:02;;;;;;;7.68;1.25;;;;;;;23.96;43.40;100567.91;5037352;28;20034;-92
2022/06/09 11:42:55;;;;;;;6.35;1.52;;;;;;;24.09;43.94;100562.72;5046741;28;20055;-93
2022/06/09 11:45:32;;;;;;;9.88;2.33;;;;;;;23.91;44.18;100559.59;5048094;28;20041;-91
2022/06/09 11:48:00;;;;;;;10.32;2.92;;;;;;;23.84;44.26;100553.34;5045957;28;20060;-93
2022/06/09 11:50:35;;;;;;;11.63;2.67;;;;;;;23.39;44.91;100547.97;5045661;28;20026;-93
2022/06/09 11:53:01;;;;;;;12.45;2.50;;;;;;;23.42;44.70;100546.75;5041800;28;20021;-92
2022/06/09 11:55:57;;;;;;;9.48;2.85;;;;;;;23.68;44.48;100543.63;5050683;28;20060;-93
2022/06/09 11:58:35;;;;;;;12.63;1.60;;;;;;;23.81;44.48;100553.69;5046922;28;20033;-92
2022/06/09 12:01:39;;;;;;;10.07;1.85;;;;;;;23.04;46.18;100542.28;5052273;28;20037;-94
2022/06/09 12:04:26;;;;;;;11.30;2.90;;;;;;;23.26;45.97;100545.94;5049173;28;20026;-95
2022/06/09 12:07:01;;;;;;;9.73;1.90;;;;;;;23.11;46.15;100545.09;5035495;28;20076;-96
2022/06/09 12:09:34;;;;;;;10.50;2.20;;;;;;;23.04;46.00;100544.97;5036646;28;20022;-96
2022/06/09 12:12:24;;;;;;;8.25;1.65;;;;;;;23.61;45.83;100546.19;5036003;28;20017;-96
2022/06/09 12:15:08;;;;;;;9.38;1.60;;;;;;;23.05;46.49;100549.31;5036369;28;20021;-95